Time;durP1;ratioP1;P1;durP2;ratioP2;P2;SDS_P1;SDS_P2;PMS_P1;PMS_P2;Temp;Humidity;BMP_temperature;BMP_pressure;BME280_temperature;BME280_humidity;BME280_pressure;Samples;Min_cycle;Max_cycle;Signal;HPM_P1;HPM_P2
2022/05/06 00:02:24;;;;;;;30.48;19.27;;;11.80;99.90;;;;;;4939747;29;20028;-82
2022/05/06 00:04:56;;;;;;;31.33;19.40;;;11.70;99.90;;;;;;4943937;28;20039;-82
2022/05/06 00:07:25;;;;;;;28.52;18.80;;;11.70;99.90;;;;;;4929957;29;20062;-81
2022/05/06 00:10:01;;;;;;;25.92;18.67;;;11.60;99.90;;;;;;4953717;28;20047;-80
2022/05/06 00:12:31;;;;;;;27.92;18.33;;;11.60;99.90;;;;;;4939806;29;20063;-80
2022/05/06 00:15:12;;;;;;;23.42;16.35;;;11.50;99.90;;;;;;4931903;29;20034;-80
2022/05/06 00:17:42;;;;;;;29.58;18.60;;;11.50;99.90;;;;;;4941279;28;20035;-81
2022/05/06 00:20:11;;;;;;;29.75;19.75;;;11.50;99.90;;;;;;4908432;29;20047;-80
2022/05/06 00:23:00;;;;;;;30.58;18.35;;;11.40;99.90;;;;;;4946334;29;20043;-80
2022/05/06 00:25:27;;;;;;;26.13;17.55;;;11.40;99.90;;;;;;4942549;28;20040;-80
2022/05/06 00:27:55;;;;;;;34.22;20.15;;;11.30;99.90;;;;;;4906025;29;20133;-80
2022/05/06 00:30:25;;;;;;;28.35;20.05;;;11.30;99.90;;;;;;4935007;28;21138;-80
2022/05/06 00:33:09;;;;;;;28.45;18.27;;;11.30;99.90;;;;;;4951177;28;20048;-82
2022/05/06 00:35:37;;;;;;;33.08;20.23;;;11.20;99.90;;;;;;4956790;28;20035;-80
2022/05/06 00:38:07;;;;;;;33.92;22.00;;;11.20;99.90;;;;;;4918801;29;20035;-81
2022/05/06 00:40:33;;;;;;;28.88;17.83;;;11.20;99.90;;;;;;4916046;29;20055;-81
2022/05/06 00:43:00;;;;;;;34.75;22.00;;;11.20;99.90;;;;;;4926778;29;20503;-80
2022/05/06 00:45:46;;;;;;;34.17;23.52;;;11.20;99.90;;;;;;4914296;29;20411;-80
2022/05/06 00:48:21;;;;;;;35.38;22.08;;;11.10;99.90;;;;;;4925388;29;20043;-81
2022/05/06 00:50:50;;;;;;;28.75;18.80;;;11.10;99.90;;;;;;4911631;29;20044;-81
2022/05/06 00:53:25;;;;;;;32.88;22.52;;;11.10;99.90;;;;;;4910342;29;21353;-81
2022/05/06 00:55:56;;;;;;;39.15;22.95;;;11.10;99.90;;;;;;4896032;29;20511;-80
2022/05/06 00:58:39;;;;;;;35.65;22.85;;;11.10;99.90;;;;;;4925076;29;20035;-81
2022/05/06 01:01:11;;;;;;;32.22;20.65;;;11.00;99.90;;;;;;4920184;29;20046;-81
2022/05/06 01:03:41;;;;;;;29.42;19.17;;;11.00;99.90;;;;;;4929198;29;20044;-81
2022/05/06 01:06:15;;;;;;;31.63;20.60;;;11.00;99.90;;;;;;4907280;29;20066;-80
2022/05/06 01:08:49;;;;;;;32.70;20.77;;;10.90;99.90;;;;;;4939272;29;20491;-80
2022/05/06 01:11:18;;;;;;;31.27;18.90;;;10.90;99.90;;;;;;4919318;28;20051;-80
2022/05/06 01:13:46;;;;;;;32.55;20.08;;;10.90;99.90;;;;;;4935778;29;20387;-80
2022/05/06 01:16:34;;;;;;;32.40;20.35;;;10.80;99.90;;;;;;4940349;29;20043;-80
2022/05/06 01:19:12;;;;;;;34.08;21.95;;;10.80;99.90;;;;;;4957565;28;20047;-80
2022/05/06 01:21:50;;;;;;;34.22;23.55;;;10.80;99.90;;;;;;4951138;28;20526;-82
2022/05/06 01:24:16;;;;;;;33.63;22.75;;;10.70;99.90;;;;;;4940936;29;20119;-80
2022/05/06 01:26:54;;;;;;;30.85;20.00;;;10.70;99.90;;;;;;4924354;29;20491;-81
2022/05/06 01:29:22;;;;;;;32.60;23.05;;;10.70;99.90;;;;;;4923727;29;20436;-80
2022/05/06 01:31:53;;;;;;;36.08;23.40;;;10.70;99.90;;;;;;4936443;29;20040;-81
2022/05/06 01:34:24;;;;;;;39.13;24.90;;;10.70;99.90;;;;;;4911061;29;20043;-80
2022/05/06 01:36:53;;;;;;;36.03;23.23;;;10.60;99.90;;;;;;4926537;29;20479;-81
2022/05/06 01:39:25;;;;;;;34.75;21.70;;;10.60;99.90;;;;;;4930907;29;20028;-81
2022/05/06 01:41:53;;;;;;;36.75;23.85;;;10.50;99.90;;;;;;4911175;29;20089;-81
2022/05/06 01:44:25;;;;;;;40.10;25.75;;;10.60;99.90;;;;;;4908350;29;20035;-81
2022/05/06 01:46:55;;;;;;;39.92;26.42;;;10.50;99.90;;;;;;4949144;28;20035;-81
2022/05/06 01:49:29;;;;;;;41.35;25.83;;;10.50;99.90;;;;;;4924000;29;20058;-81
2022/05/06 01:51:59;;;;;;;38.65;24.83;;;10.50;99.90;;;;;;4932397;29;20051;-81
2022/05/06 01:54:27;;;;;;;39.80;25.92;;;10.50;99.90;;;;;;4938413;29;20522;-81
2022/05/06 01:56:55;;;;;;;47.15;27.73;;;10.50;99.90;;;;;;4923778;29;20390;-81
2022/05/06 01:59:24;;;;;;;37.83;22.05;;;10.60;99.90;;;;;;4903081;29;20035;-80
2022/05/06 02:01:57;;;;;;;53.08;30.10;;;10.60;99.90;;;;;;4925709;28;21393;-80
2022/05/06 02:07:15;;;;;;;62.28;32.97;;;10.80;99.90;;;;;;4908845;29;20043;-80
2022/05/06 02:09:43;;;;;;;96.82;33.25;;;10.80;99.90;;;;;;4944179;28;20726;-80
2022/05/06 02:12:13;;;;;;;54.55;31.95;;;10.90;99.90;;;;;;4929709;29;20043;-80
2022/05/06 02:15:06;;;;;;;58.22;28.90;;;10.90;99.90;;;;;;4943457;29;20039;-81
2022/05/06 02:17:42;;;;;;;47.03;30.25;;;10.90;99.90;;;;;;4916723;29;20051;-81
2022/05/06 02:20:20;;;;;;;67.82;31.63;;;10.90;99.90;;;;;;4929149;28;20502;-81
2022/05/06 02:23:06;;;;;;;51.90;29.17;;;10.90;99.90;;;;;;4933925;28;20035;-81
2022/05/06 02:25:39;;;;;;;45.85;30.05;;;10.90;99.90;;;;;;4940979;28;20479;-81
2022/05/06 02:28:10;;;;;;;49.63;31.35;;;10.90;99.90;;;;;;4919622;29;20502;-81
2022/05/06 02:33:26;;;;;;;40.08;26.60;;;10.90;99.90;;;;;;4946319;28;20499;-80
2022/05/06 02:36:02;;;;;;;40.00;24.77;;;10.90;99.90;;;;;;4929242;28;20046;-80
2022/05/06 02:38:33;;;;;;;36.08;25.08;;;10.90;99.90;;;;;;4944736;29;20043;-80
2022/05/06 02:41:00;;;;;;;36.55;26.73;;;10.80;99.90;;;;;;4926901;29;20472;-80
2022/05/06 02:43:31;;;;;;;33.60;25.98;;;10.80;99.90;;;;;;4938323;28;20042;-80
2022/05/06 02:45:58;;;;;;;40.15;27.50;;;10.70;99.90;;;;;;4909714;29;20492;-80
2022/05/06 02:48:24;;;;;;;39.63;29.15;;;10.70;99.90;;;;;;4912025;29;20055;-80
2022/05/06 02:50:51;;;;;;;36.63;26.48;;;10.60;99.90;;;;;;4942798;29;20116;-80
2022/05/06 02:53:21;;;;;;;39.40;27.40;;;10.60;99.90;;;;;;4955090;28;20043;-80
2022/05/06 02:55:48;;;;;;;36.67;26.65;;;10.50;99.90;;;;;;4945656;28;20030;-80
2022/05/06 02:58:16;;;;;;;34.42;26.40;;;10.50;99.90;;;;;;4935173;28;20374;-80
2022/05/06 03:00:44;;;;;;;36.47;25.70;;;10.50;99.90;;;;;;4950842;28;20039;-80
2022/05/06 03:03:10;;;;;;;32.10;23.17;;;10.40;99.90;;;;;;4935476;28;20058;-80
2022/05/06 03:05:41;;;;;;;33.03;23.38;;;10.30;99.90;;;;;;4956415;28;20408;-80
2022/05/06 03:08:08;;;;;;;33.08;25.13;;;10.30;99.90;;;;;;4944153;28;20046;-80
2022/05/06 03:10:34;;;;;;;26.50;21.10;;;10.20;99.90;;;;;;4955779;28;20038;-80
2022/05/06 03:13:04;;;;;;;28.38;22.08;;;10.20;99.90;;;;;;4942308;28;20507;-80
2022/05/06 03:15:31;;;;;;;25.50;19.98;;;10.10;99.90;;;;;;4911625;28;20690;-79
2022/05/06 03:18:07;;;;;;;23.13;19.42;;;10.10;99.90;;;;;;4950617;28;20035;-80
2022/05/06 03:20:46;;;;;;;25.20;18.00;;;10.00;99.90;;;;;;4934669;28;20529;-80
2022/05/06 03:23:18;;;;;;;25.38;21.05;;;9.90;99.90;;;;;;4960050;28;20042;-80
2022/05/06 03:25:51;;;;;;;21.85;18.20;;;9.80;99.90;;;;;;4950158;28;20042;-80
2022/05/06 03:28:20;;;;;;;20.92;18.05;;;9.80;99.90;;;;;;4947525;28;20035;-80
2022/05/06 03:30:58;;;;;;;23.25;18.85;;;9.70;99.90;;;;;;4953589;28;20055;-80
2022/05/06 03:33:35;;;;;;;22.15;18.63;;;9.70;99.90;;;;;;4956139;28;20049;-80
2022/05/06 03:36:24;;;;;;;22.50;18.30;;;9.60;99.90;;;;;;4928382;28;20532;-80
2022/05/06 03:39:12;;;;;;;23.17;19.65;;;9.60;99.90;;;;;;4932023;28;20146;-80
2022/05/06 03:42:13;;;;;;;24.98;19.52;;;9.50;99.90;;;;;;4944204;28;20031;-80
2022/05/06 03:44:43;;;;;;;20.63;17.63;;;9.40;99.90;;;;;;4916674;28;20039;-79
2022/05/06 03:47:11;;;;;;;22.10;18.80;;;9.40;99.90;;;;;;4956246;28;20031;-80
2022/05/06 03:49:44;;;;;;;22.80;18.77;;;9.30;99.90;;;;;;4920014;28;20039;-81
2022/05/06 03:52:15;;;;;;;22.98;19.45;;;9.30;99.90;;;;;;4951414;28;20051;-81
2022/05/06 03:54:51;;;;;;;21.52;17.83;;;9.30;99.90;;;;;;4947667;28;20047;-80
2022/05/06 03:57:36;;;;;;;21.65;18.02;;;9.20;99.90;;;;;;4914729;28;20047;-81
2022/05/06 04:00:04;;;;;;;22.77;18.58;;;9.20;99.90;;;;;;4959151;28;20035;-81
2022/05/06 04:02:43;;;;;;;23.05;18.45;;;9.10;99.90;;;;;;4964391;28;20035;-82
2022/05/06 04:05:25;;;;;;;19.60;16.27;;;9.10;99.90;;;;;;4951638;28;20041;-82
2022/05/06 04:07:59;;;;;;;19.85;16.08;;;9.10;99.90;;;;;;4930670;28;21362;-81
2022/05/06 04:10:27;;;;;;;24.92;17.88;;;9.10;99.90;;;;;;4927046;28;20070;-80
2022/05/06 04:13:04;;;;;;;19.05;16.55;;;9.10;99.90;;;;;;4933325;28;20042;-81
2022/05/06 04:15:36;;;;;;;19.95;16.40;;;9.00;99.90;;;;;;4965479;28;20031;-81
2022/05/06 04:18:11;;;;;;;20.48;16.98;;;9.10;99.90;;;;;;4946212;28;20042;-81
2022/05/06 04:23:35;;;;;;;21.38;17.38;;;9.10;99.90;;;;;;4963344;28;20505;-81
2022/05/06 04:26:13;;;;;;;21.45;17.38;;;9.10;99.90;;;;;;4935799;28;20386;-80
2022/05/06 04:28:58;;;;;;;22.63;17.45;;;9.10;99.90;;;;;;4963750;28;20038;-80
2022/05/06 04:31:32;;;;;;;22.45;17.45;;;9.10;99.90;;;;;;4928670;28;20506;-81
2022/05/06 04:34:02;;;;;;;21.88;18.02;;;9.10;99.90;;;;;;4930818;28;20061;-81
2022/05/06 04:36:46;;;;;;;23.33;18.55;;;9.10;99.90;;;;;;4949778;28;20035;-81
2022/05/06 04:39:21;;;;;;;16.38;13.75;;;9.10;99.90;;;;;;4915470;29;20439;-81
2022/05/06 04:42:17;;;;;;;18.10;15.13;;;9.10;99.90;;;;;;4930283;29;20444;-81
2022/05/06 04:45:51;;;;;;;21.20;16.02;;;9.10;99.90;;;;;;4918023;29;20040;-81
2022/05/06 04:48:53;;;;;;;15.33;12.50;;;9.20;99.90;;;;;;4930865;29;20067;-81
2022/05/06 04:51:36;;;;;;;;;;;9.30;99.90;;;;;;4903084;29;21493;-82
2022/05/06 04:54:06;;;;;;;23.92;17.80;;;9.40;99.90;;;;;;4900491;29;19919;-82
2022/05/06 04:57:04;;;;;;;22.25;16.95;;;9.50;99.90;;;;;;4925396;29;20530;-81
2022/05/06 04:59:39;;;;;;;21.38;17.73;;;9.60;99.90;;;;;;4928647;29;20055;-81
2022/05/06 05:02:29;;;;;;;21.50;17.27;;;9.60;99.90;;;;;;4928566;28;20031;-81
2022/05/06 05:05:03;;;;;;;21.35;16.95;;;9.60;99.90;;;;;;4899529;29;20051;-81
2022/05/06 05:07:33;;;;;;;16.92;12.90;;;9.70;99.90;;;;;;4910232;29;20048;-81
2022/05/06 05:10:21;;;;;;;16.85;14.30;;;9.70;99.90;;;;;;4931940;29;20059;-82
2022/05/06 05:12:51;;;;;;;19.63;16.02;;;9.70;99.90;;;;;;4933232;29;20039;-81
2022/05/06 05:15:23;;;;;;;16.35;13.57;;;9.70;99.90;;;;;;4944233;29;20034;-82
2022/05/06 05:17:59;;;;;;;16.67;13.38;;;9.70;99.90;;;;;;4909841;29;20060;-81
2022/05/06 05:20:26;;;;;;;16.92;14.23;;;9.80;99.90;;;;;;4942464;29;20036;-81
2022/05/06 05:22:56;;;;;;;17.98;14.68;;;9.80;99.90;;;;;;4912079;29;20071;-81
2022/05/06 05:25:23;;;;;;;20.77;14.25;;;9.90;99.90;;;;;;4919135;29;21493;-81
2022/05/06 05:27:50;;;;;;;16.48;13.90;;;9.90;99.90;;;;;;4922301;29;20491;-82
2022/05/06 05:30:26;;;;;;;16.67;14.50;;;10.00;99.90;;;;;;4911724;29;20050;-81
2022/05/06 05:32:53;;;;;;;12.27;10.88;;;10.10;99.90;;;;;;4926819;29;20502;-81
2022/05/06 05:35:19;;;;;;;14.85;12.00;;;10.10;99.90;;;;;;4942088;29;20407;-81
2022/05/06 05:37:54;;;;;;;16.38;13.20;;;10.20;99.90;;;;;;4928001;29;20151;-81
2022/05/06 05:40:21;;;;;;;16.50;13.38;;;10.30;99.90;;;;;;4917294;29;20595;-81
2022/05/06 05:42:48;;;;;;;16.17;12.40;;;10.40;99.90;;;;;;4901562;29;20035;-81
2022/05/06 05:48:22;;;;;;;17.20;14.23;;;10.50;99.90;;;;;;4911491;29;20070;-82
2022/05/06 05:50:55;;;;;;;14.82;13.23;;;10.60;99.90;;;;;;4926704;29;20515;-82
2022/05/06 05:53:28;;;;;;;15.50;13.45;;;10.70;99.90;;;;;;4925676;28;20055;-82
2022/05/06 05:55:57;;;;;;;18.77;14.90;;;10.80;99.90;;;;;;4948771;28;20027;-81
2022/05/06 05:58:25;;;;;;;16.42;12.68;;;10.80;99.90;;;;;;4927755;28;20042;-81
2022/05/06 06:00:55;;;;;;;16.00;13.50;;;10.90;99.90;;;;;;4947142;28;20035;-81
2022/05/06 06:03:28;;;;;;;17.60;13.63;;;11.00;99.90;;;;;;4945794;28;20062;-81
2022/05/06 06:05:55;;;;;;;17.30;14.18;;;11.10;99.90;;;;;;4958018;28;20486;-81
2022/05/06 06:08:24;;;;;;;15.82;14.13;;;11.20;99.90;;;;;;4950294;28;20483;-82
2022/05/06 06:10:53;;;;;;;16.92;14.85;;;11.40;99.90;;;;;;4931921;28;20042;-82
2022/05/06 06:13:22;;;;;;;18.88;14.75;;;11.60;99.90;;;;;;4929104;28;20431;-82
2022/05/06 06:15:49;;;;;;;18.13;15.23;;;11.90;99.90;;;;;;4944717;28;20479;-82
2022/05/06 06:18:20;;;;;;;17.67;15.68;;;12.00;99.90;;;;;;4955290;28;20042;-82
2022/05/06 06:21:11;;;;;;;19.15;15.38;;;12.20;99.90;;;;;;4916277;28;20387;-82
2022/05/06 06:23:55;;;;;;;14.48;13.02;;;12.30;99.90;;;;;;4895587;29;20748;-82
2022/05/06 06:26:22;;;;;;;;;;;12.70;99.90;;;;;;4930726;28;20070;-82
2022/05/06 06:28:58;;;;;;;20.73;15.77;;;13.00;99.90;;;;;;4962082;28;19912;-83
2022/05/06 06:31:42;;;;;;;20.52;16.25;;;13.40;99.90;;;;;;4946293;28;20034;-82
2022/05/06 06:34:17;;;;;;;19.90;15.93;;;13.70;99.90;;;;;;4954589;28;20058;-82
2022/05/06 06:36:51;;;;;;;15.23;13.13;;;14.00;99.90;;;;;;4950015;28;21247;-82
2022/05/06 06:39:26;;;;;;;16.60;13.25;;;14.20;99.90;;;;;;4902787;28;20035;-82
2022/05/06 06:42:00;;;;;;;21.42;17.25;;;14.40;99.90;;;;;;4973411;28;20047;-82
2022/05/06 06:44:38;;;;;;;25.75;20.50;;;14.60;99.90;;;;;;4955234;28;20043;-81
2022/05/06 06:47:33;;;;;;;22.27;16.92;;;14.80;99.90;;;;;;4957020;28;20066;-82
2022/05/06 06:50:18;;;;;;;19.77;16.25;;;15.00;99.90;;;;;;4950354;28;20039;-82
2022/05/06 06:53:10;;;;;;;20.65;17.05;;;15.30;99.90;;;;;;4976653;28;20025;-81
2022/05/06 06:55:44;;;;;;;18.75;16.02;;;15.50;99.90;;;;;;4939821;28;20061;-81
2022/05/06 06:58:14;;;;;;;18.60;15.15;;;15.60;99.90;;;;;;4942054;28;20038;-81
2022/05/06 07:00:47;;;;;;;17.63;14.63;;;15.70;99.90;;;;;;4933825;28;20035;-81
2022/05/06 07:03:14;;;;;;;17.73;14.80;;;15.70;99.90;;;;;;4926091;28;20476;-82
2022/05/06 07:12:58;;;;;;;21.48;18.83;;;15.90;99.90;;;;;;4957855;28;20050;-82
2022/05/06 07:15:37;;;;;;;21.67;18.83;;;15.90;99.90;;;;;;4948272;28;20481;-82
2022/05/06 07:18:08;;;;;;;24.48;18.35;;;15.80;99.90;;;;;;4945368;28;20066;-81
2022/05/06 07:20:34;;;;;;;24.23;19.88;;;15.90;99.90;;;;;;4944071;28;20038;-81
2022/05/06 07:23:01;;;;;;;20.65;16.30;;;15.90;99.90;;;;;;4957610;28;20027;-87
2022/05/06 07:25:27;;;;;;;22.10;17.30;;;15.90;99.90;;;;;;4928970;28;20039;-82
2022/05/06 07:27:54;;;;;;;24.58;20.02;;;15.90;99.90;;;;;;4940340;28;20031;-82
2022/05/06 07:30:21;;;;;;;26.23;18.77;;;16.00;99.90;;;;;;4942051;28;20057;-79
2022/05/06 07:32:48;;;;;;;19.48;15.68;;;16.00;99.90;;;;;;4939219;28;20039;-80
2022/05/06 07:35:15;;;;;;;24.30;19.05;;;16.10;99.90;;;;;;4941620;28;20034;-80
2022/05/06 07:37:41;;;;;;;19.60;16.38;;;16.30;99.90;;;;;;4929007;28;20046;-84
2022/05/06 07:40:10;;;;;;;23.67;19.83;;;16.50;99.90;;;;;;4946661;28;20046;-84
2022/05/06 07:42:42;;;;;;;26.42;20.40;;;16.60;99.90;;;;;;4965133;28;20042;-83
2022/05/06 07:45:13;;;;;;;20.65;16.83;;;16.60;99.90;;;;;;4943979;28;20031;-83
2022/05/06 07:47:40;;;;;;;21.88;18.73;;;16.70;99.90;;;;;;4958441;28;20351;-84
2022/05/06 07:50:07;;;;;;;20.80;17.63;;;16.90;99.90;;;;;;4940920;28;20039;-84
2022/05/06 07:52:33;;;;;;;20.05;17.13;;;17.00;99.90;;;;;;4932963;28;20043;-83
2022/05/06 07:54:59;;;;;;;19.40;16.27;;;17.10;99.90;;;;;;4931811;28;20055;-84
2022/05/06 07:57:26;;;;;;;21.80;18.70;;;17.20;99.90;;;;;;4942313;28;20031;-83
2022/05/06 07:59:53;;;;;;;19.13;16.98;;;17.30;99.90;;;;;;4929028;28;20027;-83
2022/05/06 08:05:05;;;;;;;21.88;19.42;;;17.60;99.90;;;;;;4946376;28;20048;-83
2022/05/06 08:07:31;;;;;;;17.83;15.93;;;17.70;99.90;;;;;;4945804;28;20527;-83
2022/05/06 08:09:58;;;;;;;19.23;16.85;;;17.70;99.90;;;;;;4927686;28;20035;-83
2022/05/06 08:12:25;;;;;;;18.90;15.93;;;17.70;99.90;;;;;;4935209;28;20043;-82
2022/05/06 08:14:52;;;;;;;23.73;21.23;;;17.70;99.90;;;;;;4939020;28;20482;-85
2022/05/06 08:17:18;;;;;;;15.85;13.93;;;17.60;99.90;;;;;;4949312;28;20039;-78
2022/05/06 08:19:45;;;;;;;14.70;12.60;;;17.50;99.90;;;;;;4956699;28;20042;-77
2022/05/06 08:22:16;;;;;;;12.70;11.40;;;17.50;99.90;;;;;;4924728;28;20035;-77
2022/05/06 08:24:51;;;;;;;12.75;11.38;;;17.60;99.90;;;;;;4908458;28;20027;-76
2022/05/06 08:27:50;;;;;;;13.05;11.25;;;17.80;99.90;;;;;;4951403;28;20390;-78
2022/05/06 08:30:16;;;;;;;10.73;9.45;;;17.90;99.90;;;;;;4938595;28;20391;-78
2022/05/06 08:32:50;;;;;;;12.48;11.18;;;18.00;99.90;;;;;;4940482;28;20119;-78
2022/05/06 08:35:20;;;;;;;11.85;10.65;;;18.20;99.90;;;;;;4941127;28;20031;-78
2022/05/06 08:37:50;;;;;;;8.63;7.72;;;18.30;99.90;;;;;;4944518;28;20038;-79
2022/05/06 08:40:21;;;;;;;9.93;8.75;;;18.30;99.90;;;;;;4956567;28;20395;-78
2022/05/06 08:42:53;;;;;;;12.27;10.88;;;18.30;99.90;;;;;;4958088;28;20370;-78
2022/05/06 08:50:59;;;;;;;11.57;10.43;;;18.70;99.90;;;;;;4948574;28;20375;-78
2022/05/06 08:53:34;;;;;;;11.77;10.13;;;18.90;99.90;;;;;;4924299;29;20043;-80
2022/05/06 08:56:09;;;;;;;11.80;9.82;;;19.10;99.90;;;;;;4941472;29;20038;-79
2022/05/06 08:58:45;;;;;;;10.90;9.25;;;19.30;99.90;;;;;;4943725;28;20132;-79
2022/05/06 09:01:20;;;;;;;10.40;9.30;;;19.40;99.90;;;;;;4935127;28;20039;-78
2022/05/06 09:03:58;;;;;;;12.63;9.93;;;19.50;99.90;;;;;;4939602;28;20062;-81
2022/05/06 09:06:34;;;;;;;12.27;10.23;;;19.70;99.90;;;;;;4942325;29;20126;-80
2022/05/06 09:09:02;;;;;;;10.98;9.80;;;19.70;99.90;;;;;;4940907;28;20052;-81
2022/05/06 09:17:23;;;;;;;18.38;13.23;;;20.20;99.40;;;;;;4937442;28;20031;-78
2022/05/06 09:20:33;;;;;;;11.75;9.80;;;20.30;99.40;;;;;;4920715;29;20054;-78
2022/05/06 09:23:17;;;;;;;15.40;13.68;;;20.30;98.90;;;;;;4940349;29;20038;-79
2022/05/06 09:25:49;;;;;;;12.65;11.35;;;20.50;98.80;;;;;;4941466;29;20355;-80
2022/05/06 09:28:27;;;;;;;9.80;8.70;;;20.60;98.80;;;;;;4920612;29;20505;-78
2022/05/06 09:31:10;;;;;;;8.55;7.65;;;20.80;98.20;;;;;;4908263;29;20036;-78
2022/05/06 09:33:41;;;;;;;8.50;6.68;;;20.80;97.80;;;;;;4925749;29;20028;-78
2022/05/06 09:36:25;;;;;;;7.72;7.00;;;20.70;97.60;;;;;;4960349;28;20035;-78
2022/05/06 09:39:11;;;;;;;6.72;6.03;;;20.80;97.00;;;;;;4938077;28;20024;-78
2022/05/06 09:41:40;;;;;;;5.88;5.28;;;21.00;96.60;;;;;;4943016;28;20043;-78
2022/05/06 09:44:08;;;;;;;8.23;7.43;;;21.20;95.80;;;;;;4938617;29;20050;-78
2022/05/06 09:46:35;;;;;;;3.90;3.60;;;21.20;95.30;;;;;;4909373;29;20035;-79
2022/05/06 09:49:04;;;;;;;6.18;5.57;;;21.30;95.20;;;;;;4927228;28;20153;-79
2022/05/06 09:51:35;;;;;;;5.85;4.72;;;21.50;95.00;;;;;;4937358;28;20040;-79
2022/05/06 09:54:05;;;;;;;5.90;5.32;;;21.70;95.00;;;;;;4909762;29;20066;-80
2022/05/06 09:56:32;;;;;;;6.05;5.32;;;21.70;94.10;;;;;;4936771;29;20023;-81
2022/05/06 09:58:58;;;;;;;6.95;5.40;;;21.70;94.10;;;;;;4899075;29;21156;-80
2022/05/06 10:01:25;;;;;;;7.47;6.78;;;21.80;94.10;;;;;;4943077;28;20039;-79
2022/05/06 10:03:55;;;;;;;5.60;5.10;;;21.90;93.80;;;;;;4938579;29;20027;-80
2022/05/06 10:06:25;;;;;;;5.85;5.25;;;22.10;93.80;;;;;;4943844;28;20062;-79
2022/05/06 10:08:56;;;;;;;5.05;4.55;;;22.20;93.50;;;;;;4939436;29;20042;-80
2022/05/06 10:11:25;;;;;;;6.80;5.00;;;22.40;92.50;;;;;;4930706;29;20031;-80
2022/05/06 10:13:53;;;;;;;5.43;4.93;;;22.40;91.50;;;;;;4929183;29;20480;-79
2022/05/06 10:16:19;;;;;;;5.70;4.95;;;22.30;91.50;;;;;;4926518;29;20044;-79
2022/05/06 10:18:46;;;;;;;4.50;4.10;;;22.40;91.40;;;;;;4943860;28;20383;-79
2022/05/06 10:21:49;;;;;;;6.80;6.10;;;22.60;91.10;;;;;;4939708;28;20039;-80
2022/05/06 10:24:18;;;;;;;6.65;5.30;;;22.60;90.60;;;;;;4943097;28;20035;-80
2022/05/06 10:26:52;;;;;;;5.20;4.35;;;22.70;90.90;;;;;;4935471;29;20050;-80
2022/05/06 10:32:52;;;;;;;5.15;4.50;;;23.10;89.60;;;;;;4947564;28;20039;-80
2022/05/06 10:35:41;;;;;;;6.03;3.88;;;23.10;89.10;;;;;;4931349;28;20133;-80
2022/05/06 10:38:41;;;;;;;4.88;4.47;;;23.40;89.30;;;;;;4937607;29;20057;-79
2022/05/06 10:41:24;;;;;;;;;;;23.80;88.40;;;;;;4939357;29;20038;-79
2022/05/06 10:43:55;;;;;;;4.20;3.80;;;24.20;87.40;;;;;;4939781;29;19910;-78
2022/05/06 10:46:35;;;;;;;4.68;3.05;;;24.40;87.00;;;;;;4957170;28;20050;-79
2022/05/06 10:49:34;;;;;;;6.75;6.07;;;24.80;86.10;;;;;;4944445;28;20506;-79
2022/05/06 10:52:24;;;;;;;15.35;10.95;;;25.20;84.00;;;;;;4916577;28;20051;-78
2022/05/06 10:55:03;;;;;;;9.90;8.90;;;25.50;83.20;;;;;;4940378;28;20066;-79
2022/05/06 10:57:58;;;;;;;6.00;5.28;;;25.90;82.70;;;;;;4908490;28;20408;-82
2022/05/06 11:00:29;;;;;;;3.53;3.03;;;26.20;80.30;;;;;;4934388;28;20051;-80
2022/05/06 11:02:59;;;;;;;3.58;3.03;;;26.50;78.10;;;;;;4940168;28;20042;-78
2022/05/06 11:05:30;;;;;;;2.22;1.77;;;26.80;75.60;;;;;;4956658;28;20027;-79
2022/05/06 11:07:59;;;;;;;4.00;3.13;;;27.20;74.90;;;;;;4939808;28;20490;-79
2022/05/06 11:10:30;;;;;;;2.95;2.50;;;27.50;73.00;;;;;;4951562;28;20039;-80
2022/05/06 11:13:02;;;;;;;2.45;2.25;;;27.80;72.10;;;;;;4945714;28;20042;-79
2022/05/06 11:15:33;;;;;;;4.07;2.03;;;28.10;70.10;;;;;;4954124;28;20039;-80
2022/05/06 11:18:05;;;;;;;1.90;1.17;;;28.40;68.40;;;;;;4954305;28;20038;-79
2022/05/06 11:20:38;;;;;;;2.20;1.50;;;28.70;67.30;;;;;;4927565;28;20450;-79
2022/05/06 11:23:13;;;;;;;1.92;1.50;;;29.00;66.40;;;;;;4954431;28;20050;-79
2022/05/06 11:25:51;;;;;;;1.35;0.90;;;29.50;65.80;;;;;;4932079;28;20119;-78
2022/05/06 11:28:27;;;;;;;2.67;2.47;;;29.90;64.50;;;;;;4926903;28;20049;-79
2022/05/06 11:30:55;;;;;;;2.58;2.20;;;30.20;61.90;;;;;;4942285;28;20034;-78
2022/05/06 11:33:28;;;;;;;2.08;1.70;;;30.20;60.50;;;;;;4944588;28;20394;-77
2022/05/06 11:36:07;;;;;;;3.92;1.88;;;30.40;59.80;;;;;;4954430;28;20035;-77
2022/05/06 11:38:46;;;;;;;3.30;2.92;;;30.50;58.80;;;;;;4952033;28;20034;-77
2022/05/06 11:41:15;;;;;;;5.82;1.70;;;30.70;57.30;;;;;;4953622;28;20027;-80
2022/05/06 11:43:46;;;;;;;2.05;1.60;;;30.70;56.90;;;;;;4951439;28;20027;-79
2022/05/06 11:49:05;;;;;;;5.82;1.38;;;31.10;55.20;;;;;;4940508;28;20030;-75
2022/05/06 11:51:45;;;;;;;1.38;1.15;;;31.30;55.10;;;;;;4943314;28;20051;-76
2022/05/06 11:54:24;;;;;;;2.45;1.42;;;31.50;54.20;;;;;;4918711;29;20035;-79
2022/05/06 11:56:53;;;;;;;3.40;1.00;;;31.60;52.50;;;;;;4933462;28;20052;-79
2022/05/06 11:59:24;;;;;;;2.13;1.13;;;31.60;52.70;;;;;;4922620;29;20480;-79
2022/05/06 12:01:53;;;;;;;2.30;1.10;;;31.70;52.40;;;;;;4915760;29;20020;-81
2022/05/06 12:04:30;;;;;;;1.73;1.10;;;31.90;51.10;;;;;;4918421;29;20052;-79
2022/05/06 12:07:09;;;;;;;1.42;0.95;;;32.10;50.30;;;;;;4933860;28;20078;-78
2022/05/06 12:09:49;;;;;;;1.48;1.00;;;32.30;50.60;;;;;;4950812;28;20797;-80
2022/05/06 12:12:19;;;;;;;1.55;0.90;;;32.30;49.60;;;;;;4937568;28;20036;-79
2022/05/06 12:15:10;;;;;;;1.92;0.90;;;32.60;49.90;;;;;;4924986;29;20028;-78
2022/05/06 12:17:38;;;;;;;2.42;0.88;;;33.10;49.10;;;;;;4928719;29;20042;-78
2022/05/06 12:20:43;;;;;;;1.77;1.00;;;33.40;48.20;;;;;;4919738;29;20040;-76
2022/05/06 12:23:11;;;;;;;1.55;1.30;;;33.70;47.80;;;;;;4920268;29;20039;-79
2022/05/06 12:25:41;;;;;;;10.57;9.68;;;33.80;46.40;;;;;;4937343;28;20384;-78
2022/05/06 12:28:16;;;;;;;6.25;5.35;;;33.90;46.40;;;;;;4918684;29;20024;-79
2022/05/06 12:30:46;;;;;;;2.90;2.08;;;33.90;46.20;;;;;;4937050;29;20020;-78
2022/05/06 12:33:17;;;;;;;5.28;1.25;;;34.10;45.80;;;;;;4922531;29;20027;-78
2022/05/06 12:35:58;;;;;;;2.40;2.20;;;34.20;44.80;;;;;;4921306;29;20476;-79
2022/05/06 12:38:40;;;;;;;;;;;34.30;44.30;;;;;;4890940;29;20042;-78
2022/05/06 12:41:16;;;;;;;;;;;34.50;44.00;;;;;;4920747;29;19914;-79
2022/05/06 12:43:43;;;;;;;1.33;0.80;;;34.50;44.00;;;;;;4923179;29;19917;-79
2022/05/06 12:46:09;;;;;;;1.35;0.80;;;34.60;44.10;;;;;;4918007;29;20040;-79
2022/05/06 12:51:21;;;;;;;1.42;0.50;;;34.70;43.10;;;;;;4921067;29;20651;-79
2022/05/06 12:53:47;;;;;;;1.00;0.70;;;34.90;43.60;;;;;;4936590;29;20368;-79
2022/05/06 12:56:19;;;;;;;1.50;0.50;;;35.40;42.40;;;;;;4958272;28;20047;-78
2022/05/06 12:58:45;;;;;;;1.63;0.88;;;35.50;41.80;;;;;;4906261;29;20040;-79
2022/05/06 13:01:12;;;;;;;2.55;1.55;;;35.70;41.70;;;;;;4929088;29;20044;-79
2022/05/06 13:03:38;;;;;;;2.45;1.85;;;35.80;41.10;;;;;;4925715;29;20035;-81
2022/05/06 13:06:04;;;;;;;4.05;1.00;;;35.90;40.80;;;;;;4928448;29;20511;-80
2022/05/06 13:08:31;;;;;;;2.30;1.20;;;35.80;40.70;;;;;;4926207;29;20380;-80
2022/05/06 13:10:57;;;;;;;2.72;1.00;;;36.00;40.90;;;;;;4937802;28;20036;-79
2022/05/06 13:13:24;;;;;;;1.67;1.00;;;36.00;40.40;;;;;;4907238;29;20027;-79
2022/05/06 13:15:50;;;;;;;1.80;1.00;;;36.20;40.20;;;;;;4917942;29;20408;-78
2022/05/06 13:18:17;;;;;;;3.58;1.10;;;36.40;40.00;;;;;;4941795;28;20043;-79
2022/05/06 13:20:47;;;;;;;2.33;1.90;;;36.60;39.70;;;;;;4956983;28;20034;-78
2022/05/06 13:23:34;;;;;;;4.78;2.17;;;36.80;39.40;;;;;;4939884;28;20056;-79
2022/05/06 13:26:03;;;;;;;7.63;6.45;;;37.00;38.70;;;;;;4949090;28;20062;-79
2022/05/06 13:28:30;;;;;;;4.82;2.17;;;37.10;38.50;;;;;;4940098;29;20046;-79
2022/05/06 13:31:15;;;;;;;2.83;2.50;;;37.20;38.80;;;;;;4927662;29;20024;-79
2022/05/06 13:33:42;;;;;;;6.18;4.63;;;37.30;38.00;;;;;;4940904;28;20474;-79
2022/05/06 13:36:12;;;;;;;2.22;1.65;;;37.20;37.90;;;;;;4943462;28;20051;-79
2022/05/06 13:38:42;;;;;;;3.10;1.60;;;37.20;38.20;;;;;;4924134;29;20071;-79
2022/05/06 13:41:14;;;;;;;8.73;1.55;;;37.40;39.00;;;;;;4953579;28;20027;-79
2022/05/06 13:43:44;;;;;;;3.55;2.30;;;37.50;38.30;;;;;;4937054;28;20042;-79
2022/05/06 13:46:16;;;;;;;2.70;1.95;;;37.80;37.70;;;;;;4954550;28;20035;-80
2022/05/06 13:48:45;;;;;;;11.13;9.68;;;37.80;38.10;;;;;;4954320;28;20054;-79
2022/05/06 13:51:31;;;;;;;22.95;20.65;;;38.00;37.50;;;;;;4936873;29;20050;-79